sensor_id;sensor_type;location;lat;lon;timestamp;pressure;altitude;pressure_sealevel;temperature;humidity
45285;BME280;31026;43.780;25.948;2022-07-06T00:02:24;100595.44;;;24.91;55.80
45285;BME280;31026;43.780;25.948;2022-07-06T00:04:52;100621.16;;;24.87;55.97
45285;BME280;31026;43.780;25.948;2022-07-06T00:07:20;100634.75;;;24.71;55.80
45285;BME280;31026;43.780;25.948;2022-07-06T00:09:49;100622.25;;;24.70;56.13
45285;BME280;31026;43.780;25.948;2022-07-06T00:12:17;100607.69;;;24.79;55.81
45285;BME280;31026;43.780;25.948;2022-07-06T00:14:45;100600.91;;;24.75;56.25
45285;BME280;31026;43.780;25.948;2022-07-06T00:17:16;100591.78;;;24.76;56.28
45285;BME280;31026;43.780;25.948;2022-07-06T00:19:45;100595.16;;;24.78;56.34
45285;BME280;31026;43.780;25.948;2022-07-06T00:22:13;100594.31;;;24.77;55.95
45285;BME280;31026;43.780;25.948;2022-07-06T00:24:41;100602.72;;;24.83;55.83
45285;BME280;31026;43.780;25.948;2022-07-06T00:27:10;100605.97;;;24.78;55.28
45285;BME280;31026;43.780;25.948;2022-07-06T00:29:38;100604.44;;;24.84;55.63
45285;BME280;31026;43.780;25.948;2022-07-06T00:32:09;100588.38;;;24.82;55.60
45285;BME280;31026;43.780;25.948;2022-07-06T00:34:40;100604.25;;;24.85;55.77
45285;BME280;31026;43.780;25.948;2022-07-06T00:37:08;100617.78;;;24.85;55.71
45285;BME280;31026;43.780;25.948;2022-07-06T00:39:36;100592.78;;;24.83;55.62
45285;BME280;31026;43.780;25.948;2022-07-06T00:42:05;100598.69;;;24.78;55.53
45285;BME280;31026;43.780;25.948;2022-07-06T00:44:33;100598.53;;;24.80;55.82
45285;BME280;31026;43.780;25.948;2022-07-06T00:47:02;100612.22;;;24.78;55.66
45285;BME280;31026;43.780;25.948;2022-07-06T00:49:33;100620.50;;;24.85;55.51
45285;BME280;31026;43.780;25.948;2022-07-06T00:52:16;100597.03;;;24.77;55.99
45285;BME280;31026;43.780;25.948;2022-07-06T00:54:44;100608.34;;;24.81;55.59
45285;BME280;31026;43.780;25.948;2022-07-06T00:57:13;100603.94;;;24.80;55.58
45285;BME280;31026;43.780;25.948;2022-07-06T00:59:42;100608.69;;;24.78;55.86
45285;BME280;31026;43.780;25.948;2022-07-06T01:02:10;100591.09;;;24.82;55.60
45285;BME280;31026;43.780;25.948;2022-07-06T01:04:38;100590.97;;;24.75;55.52
45285;BME280;31026;43.780;25.948;2022-07-06T01:07:07;100607.03;;;24.69;55.96
45285;BME280;31026;43.780;25.948;2022-07-06T01:09:38;100612.66;;;24.67;56.87
45285;BME280;31026;43.780;25.948;2022-07-06T01:12:07;100603.31;;;24.70;57.45
45285;BME280;31026;43.780;25.948;2022-07-06T01:14:35;100594.84;;;24.73;57.42
45285;BME280;31026;43.780;25.948;2022-07-06T01:17:04;100601.47;;;24.70;57.80
45285;BME280;31026;43.780;25.948;2022-07-06T01:19:33;100592.50;;;24.70;58.24
45285;BME280;31026;43.780;25.948;2022-07-06T01:22:04;100609.75;;;24.69;58.73
45285;BME280;31026;43.780;25.948;2022-07-06T01:24:34;100577.59;;;24.74;58.49
45285;BME280;31026;43.780;25.948;2022-07-06T01:27:03;100588.53;;;24.80;58.32
45285;BME280;31026;43.780;25.948;2022-07-06T01:29:32;100583.34;;;24.79;58.52
45285;BME280;31026;43.780;25.948;2022-07-06T01:32:01;100599.56;;;24.79;58.36
45285;BME280;31026;43.780;25.948;2022-07-06T01:34:31;100598.53;;;24.80;58.52
45285;BME280;31026;43.780;25.948;2022-07-06T01:37:00;100596.16;;;24.77;58.95
45285;BME280;31026;43.780;25.948;2022-07-06T01:39:31;100585.56;;;24.75;59.05
45285;BME280;31026;43.780;25.948;2022-07-06T01:41:59;100588.91;;;24.77;58.64
45285;BME280;31026;43.780;25.948;2022-07-06T01:44:28;100584.00;;;24.81;58.96
45285;BME280;31026;43.780;25.948;2022-07-06T01:46:56;100577.13;;;24.70;59.44
45285;BME280;31026;43.780;25.948;2022-07-06T01:49:25;100590.16;;;24.67;59.92
45285;BME280;31026;43.780;25.948;2022-07-06T01:51:53;100582.56;;;24.62;59.71
45285;BME280;31026;43.780;25.948;2022-07-06T01:54:21;100588.53;;;24.57;60.36
45285;BME280;31026;43.780;25.948;2022-07-06T01:56:52;100583.47;;;24.54;60.42
45285;BME280;31026;43.780;25.948;2022-07-06T01:59:21;100568.44;;;24.52;60.52
45285;BME280;31026;43.780;25.948;2022-07-06T02:01:49;100574.69;;;24.52;60.33
45285;BME280;31026;43.780;25.948;2022-07-06T02:04:17;100587.53;;;24.50;60.52
45285;BME280;31026;43.780;25.948;2022-07-06T02:06:46;100590.06;;;24.52;60.62
45285;BME280;31026;43.780;25.948;2022-07-06T02:09:14;100595.97;;;24.55;60.88
45285;BME280;31026;43.780;25.948;2022-07-06T02:11:42;100573.81;;;24.60;60.43
45285;BME280;31026;43.780;25.948;2022-07-06T02:14:13;100580.59;;;24.56;60.75
45285;BME280;31026;43.780;25.948;2022-07-06T02:16:42;100569.09;;;24.54;60.85
45285;BME280;31026;43.780;25.948;2022-07-06T02:19:10;100583.25;;;24.64;60.74
45285;BME280;31026;43.780;25.948;2022-07-06T02:21:39;100579.16;;;24.68;60.50
45285;BME280;31026;43.780;25.948;2022-07-06T02:24:07;100581.56;;;24.63;60.80
45285;BME280;31026;43.780;25.948;2022-07-06T02:26:36;100591.88;;;24.59;60.63
45285;BME280;31026;43.780;25.948;2022-07-06T02:29:04;100589.25;;;24.74;60.75
45285;BME280;31026;43.780;25.948;2022-07-06T02:31:35;100592.69;;;24.68;60.60
45285;BME280;31026;43.780;25.948;2022-07-06T02:34:03;100602.00;;;24.66;60.87
45285;BME280;31026;43.780;25.948;2022-07-06T02:36:32;100600.63;;;24.70;60.78
45285;BME280;31026;43.780;25.948;2022-07-06T02:39:00;100585.41;;;24.69;60.66
45285;BME280;31026;43.780;25.948;2022-07-06T02:41:29;100580.00;;;24.69;60.67
45285;BME280;31026;43.780;25.948;2022-07-06T02:43:57;100590.59;;;24.78;60.24
45285;BME280;31026;43.780;25.948;2022-07-06T02:46:25;100578.28;;;24.76;60.82
45285;BME280;31026;43.780;25.948;2022-07-06T02:48:56;100573.41;;;24.71;60.65
45285;BME280;31026;43.780;25.948;2022-07-06T02:51:25;100591.78;;;24.76;60.85
45285;BME280;31026;43.780;25.948;2022-07-06T02:53:53;100581.81;;;24.76;60.48
45285;BME280;31026;43.780;25.948;2022-07-06T02:56:22;100570.69;;;24.71;60.89
45285;BME280;31026;43.780;25.948;2022-07-06T02:58:50;100585.66;;;24.82;60.29
45285;BME280;31026;43.780;25.948;2022-07-06T03:01:18;100582.31;;;24.80;60.08
45285;BME280;31026;43.780;25.948;2022-07-06T03:03:47;100576.22;;;24.78;60.57
45285;BME280;31026;43.780;25.948;2022-07-06T03:06:18;100575.78;;;24.66;60.84
45285;BME280;31026;43.780;25.948;2022-07-06T03:08:46;100588.31;;;24.59;60.84
45285;BME280;31026;43.780;25.948;2022-07-06T03:11:14;100586.13;;;24.63;61.04
45285;BME280;31026;43.780;25.948;2022-07-06T03:13:43;100584.28;;;24.55;61.04
45285;BME280;31026;43.780;25.948;2022-07-06T03:16:11;100572.81;;;24.53;60.95
45285;BME280;31026;43.780;25.948;2022-07-06T03:18:39;100585.63;;;24.59;61.23
45285;BME280;31026;43.780;25.948;2022-07-06T03:21:08;100579.69;;;24.64;60.97
45285;BME280;31026;43.780;25.948;2022-07-06T03:23:39;100571.81;;;24.54;61.28
45285;BME280;31026;43.780;25.948;2022-07-06T03:26:07;100584.50;;;24.53;61.30
45285;BME280;31026;43.780;25.948;2022-07-06T03:28:36;100596.94;;;24.63;61.26
45285;BME280;31026;43.780;25.948;2022-07-06T03:31:04;100593.72;;;24.67;61.05
45285;BME280;31026;43.780;25.948;2022-07-06T03:33:32;100594.88;;;24.65;61.28
45285;BME280;31026;43.780;25.948;2022-07-06T03:36:01;100580.97;;;24.76;60.82
45285;BME280;31026;43.780;25.948;2022-07-06T03:38:30;100584.34;;;24.78;61.04
45285;BME280;31026;43.780;25.948;2022-07-06T03:41:01;100584.00;;;24.81;60.62
45285;BME280;31026;43.780;25.948;2022-07-06T03:43:29;100591.75;;;24.84;60.47
45285;BME280;31026;43.780;25.948;2022-07-06T03:45:58;100586.66;;;24.89;60.41
45285;BME280;31026;43.780;25.948;2022-07-06T03:48:26;100574.63;;;24.92;60.55
45285;BME280;31026;43.780;25.948;2022-07-06T03:50:54;100579.06;;;24.85;61.02
45285;BME280;31026;43.780;25.948;2022-07-06T03:53:23;100566.41;;;24.85;60.98
45285;BME280;31026;43.780;25.948;2022-07-06T03:55:51;100579.19;;;24.91;61.21
45285;BME280;31026;43.780;25.948;2022-07-06T03:58:34;100571.56;;;24.95;60.74
45285;BME280;31026;43.780;25.948;2022-07-06T04:01:03;100562.91;;;24.99;60.63
45285;BME280;31026;43.780;25.948;2022-07-06T04:03:31;100577.28;;;25.00;60.87
45285;BME280;31026;43.780;25.948;2022-07-06T04:05:59;100568.97;;;25.01;60.95
45285;BME280;31026;43.780;25.948;2022-07-06T04:08:28;100560.47;;;25.05;60.60
45285;BME280;31026;43.780;25.948;2022-07-06T04:10:56;100566.22;;;25.10;60.16
45285;BME280;31026;43.780;25.948;2022-07-06T04:13:25;100572.44;;;25.10;60.08
45285;BME280;31026;43.780;25.948;2022-07-06T04:15:56;100565.56;;;25.08;60.55
45285;BME280;31026;43.780;25.948;2022-07-06T04:18:24;100560.47;;;25.05;60.40
45285;BME280;31026;43.780;25.948;2022-07-06T04:20:52;100566.28;;;25.01;61.07
45285;BME280;31026;43.780;25.948;2022-07-06T04:23:22;100582.78;;;25.07;60.78
45285;BME280;31026;43.780;25.948;2022-07-06T04:25:50;100584.50;;;25.08;60.90
45285;BME280;31026;43.780;25.948;2022-07-06T04:28:19;100575.28;;;24.94;61.50
45285;BME280;31026;43.780;25.948;2022-07-06T04:30:47;100580.94;;;24.84;61.87
45285;BME280;31026;43.780;25.948;2022-07-06T04:33:18;100565.25;;;24.79;61.98
45285;BME280;31026;43.780;25.948;2022-07-06T04:35:47;100574.50;;;24.85;62.05
45285;BME280;31026;43.780;25.948;2022-07-06T04:38:15;100572.56;;;24.94;61.38
45285;BME280;31026;43.780;25.948;2022-07-06T04:40:44;100576.44;;;24.99;61.26
45285;BME280;31026;43.780;25.948;2022-07-06T04:43:13;100596.94;;;24.94;61.47
45285;BME280;31026;43.780;25.948;2022-07-06T04:45:41;100587.44;;;24.98;61.36
45285;BME280;31026;43.780;25.948;2022-07-06T04:48:10;100592.53;;;24.93;61.80
45285;BME280;31026;43.780;25.948;2022-07-06T04:50:41;100574.50;;;24.85;61.83
45285;BME280;31026;43.780;25.948;2022-07-06T04:53:09;100585.66;;;24.82;62.19
45285;BME280;31026;43.780;25.948;2022-07-06T04:55:38;100581.25;;;24.89;61.45
45285;BME280;31026;43.780;25.948;2022-07-06T04:58:06;100582.97;;;24.82;61.76
45285;BME280;31026;43.780;25.948;2022-07-06T05:00:34;100589.16;;;24.91;61.96
45285;BME280;31026;43.780;25.948;2022-07-06T05:03:03;100584.84;;;25.05;61.29
45285;BME280;31026;43.780;25.948;2022-07-06T05:05:31;100592.19;;;25.19;60.99
45285;BME280;31026;43.780;25.948;2022-07-06T05:08:02;100579.31;;;25.21;61.11
45285;BME280;31026;43.780;25.948;2022-07-06T05:10:31;100581.03;;;25.22;61.03
45285;BME280;31026;43.780;25.948;2022-07-06T05:12:59;100595.41;;;25.14;61.05
45285;BME280;31026;43.780;25.948;2022-07-06T05:15:27;100589.53;;;25.11;61.35
45285;BME280;31026;43.780;25.948;2022-07-06T05:17:56;100587.84;;;25.10;61.44
45285;BME280;31026;43.780;25.948;2022-07-06T05:20:24;100606.06;;;25.16;61.49
45285;BME280;31026;43.780;25.948;2022-07-06T05:22:53;100609.16;;;25.13;61.70
45285;BME280;31026;43.780;25.948;2022-07-06T05:25:24;100612.94;;;25.04;62.50
45285;BME280;31026;43.780;25.948;2022-07-06T05:27:52;100609.84;;;25.07;61.70
45285;BME280;31026;43.780;25.948;2022-07-06T05:30:20;100621.66;;;25.14;61.62
45285;BME280;31026;43.780;25.948;2022-07-06T05:32:49;100619.44;;;25.17;61.40
45285;BME280;31026;43.780;25.948;2022-07-06T05:35:17;100624.97;;;25.24;61.31
45285;BME280;31026;43.780;25.948;2022-07-06T05:37:45;100635.28;;;25.29;61.31
45285;BME280;31026;43.780;25.948;2022-07-06T05:40:14;100628.19;;;25.28;61.55
45285;BME280;31026;43.780;25.948;2022-07-06T05:42:45;100625.31;;;25.29;61.70
45285;BME280;31026;43.780;25.948;2022-07-06T05:45:13;100613.81;;;25.27;61.65
45285;BME280;31026;43.780;25.948;2022-07-06T05:47:41;100637.78;;;25.30;62.32
45285;BME280;31026;43.780;25.948;2022-07-06T05:50:22;100616.34;;;24.18;64.22
45285;BME280;31026;43.780;25.948;2022-07-06T05:52:57;100647.44;;;23.32;63.34
45285;BME280;31026;43.780;25.948;2022-07-06T05:55:26;100650.84;;;22.92;62.25
45285;BME280;31026;43.780;25.948;2022-07-06T05:57:57;100654.84;;;22.71;61.70
45285;BME280;31026;43.780;25.948;2022-07-06T06:00:26;100656.41;;;22.48;60.77
45285;BME280;31026;43.780;25.948;2022-07-06T06:02:55;100656.03;;;22.34;60.10
45285;BME280;31026;43.780;25.948;2022-07-06T06:05:23;100664.63;;;22.38;59.13
45285;BME280;31026;43.780;25.948;2022-07-06T06:07:51;100655.59;;;22.47;58.25
45285;BME280;31026;43.780;25.948;2022-07-06T06:10:20;100662.59;;;22.40;58.09
45285;BME280;31026;43.780;25.948;2022-07-06T06:12:50;100651.59;;;22.25;57.90
45285;BME280;31026;43.780;25.948;2022-07-06T06:15:21;100668.00;;;22.40;57.94
45285;BME280;31026;43.780;25.948;2022-07-06T06:17:49;100660.94;;;22.39;58.15
45285;BME280;31026;43.780;25.948;2022-07-06T06:20:17;100651.03;;;22.21;59.18
45285;BME280;31026;43.780;25.948;2022-07-06T06:22:46;100651.59;;;22.25;59.41
45285;BME280;31026;43.780;25.948;2022-07-06T06:25:15;100661.56;;;22.33;59.47
45285;BME280;31026;43.780;25.948;2022-07-06T06:27:44;100655.66;;;22.29;59.60
45285;BME280;31026;43.780;25.948;2022-07-06T06:30:12;100663.81;;;22.19;60.02
45285;BME280;31026;43.780;25.948;2022-07-06T06:32:44;100650.34;;;22.19;59.87
45285;BME280;31026;43.780;25.948;2022-07-06T06:35:12;100656.56;;;22.20;59.72
45285;BME280;31026;43.780;25.948;2022-07-06T06:37:41;100658.25;;;22.39;59.13
45285;BME280;31026;43.780;25.948;2022-07-06T06:40:10;100663.91;;;22.28;59.49
45285;BME280;31026;43.780;25.948;2022-07-06T06:42:39;100652.84;;;22.13;59.98
45285;BME280;31026;43.780;25.948;2022-07-06T06:45:08;100651.44;;;22.27;59.68
45285;BME280;31026;43.780;25.948;2022-07-06T06:47:36;100669.28;;;22.28;59.47
45285;BME280;31026;43.780;25.948;2022-07-06T06:50:07;100652.66;;;22.14;60.11
45285;BME280;31026;43.780;25.948;2022-07-06T06:52:36;100640.94;;;22.23;59.37
45285;BME280;31026;43.780;25.948;2022-07-06T06:55:04;100649.28;;;22.12;59.59
45285;BME280;31026;43.780;25.948;2022-07-06T06:57:33;100646.59;;;22.12;59.74
45285;BME280;31026;43.780;25.948;2022-07-06T07:00:02;100643.72;;;22.32;59.18
45285;BME280;31026;43.780;25.948;2022-07-06T07:02:30;100645.59;;;22.13;59.70
45285;BME280;31026;43.780;25.948;2022-07-06T07:04:59;100646.66;;;22.20;59.53
45285;BME280;31026;43.780;25.948;2022-07-06T07:07:30;100644.88;;;22.29;59.26
45285;BME280;31026;43.780;25.948;2022-07-06T07:09:58;100646.97;;;22.17;59.55
45285;BME280;31026;43.780;25.948;2022-07-06T07:12:28;100648.34;;;22.21;59.33
45285;BME280;31026;43.780;25.948;2022-07-06T07:14:58;100653.72;;;22.48;59.02
45285;BME280;31026;43.780;25.948;2022-07-06T07:17:26;100650.16;;;22.39;59.60
45285;BME280;31026;43.780;25.948;2022-07-06T07:19:55;100649.16;;;23.50;57.80
45285;BME280;31026;43.780;25.948;2022-07-06T07:22:24;100636.50;;;23.99;57.34
45285;BME280;31026;43.780;25.948;2022-07-06T07:24:55;100630.19;;;24.24;57.00
45285;BME280;31026;43.780;25.948;2022-07-06T07:27:24;100642.81;;;24.39;57.09
45285;BME280;31026;43.780;25.948;2022-07-06T07:29:52;100649.84;;;24.49;57.17
45285;BME280;31026;43.780;25.948;2022-07-06T07:32:21;100646.66;;;24.53;57.66
45285;BME280;31026;43.780;25.948;2022-07-06T07:34:49;100625.72;;;24.55;58.34
45285;BME280;31026;43.780;25.948;2022-07-06T07:37:17;100636.31;;;24.57;58.56
45285;BME280;31026;43.780;25.948;2022-07-06T07:39:46;100632.56;;;24.66;57.95
45285;BME280;31026;43.780;25.948;2022-07-06T07:42:17;100641.19;;;24.70;59.11
45285;BME280;31026;43.780;25.948;2022-07-06T07:44:45;100641.81;;;24.80;60.11
45285;BME280;31026;43.780;25.948;2022-07-06T07:47:13;100647.72;;;24.84;59.52
45285;BME280;31026;43.780;25.948;2022-07-06T07:49:42;100648.19;;;24.87;59.64
45285;BME280;31026;43.780;25.948;2022-07-06T07:52:10;100635.50;;;24.88;60.77
45285;BME280;31026;43.780;25.948;2022-07-06T07:54:39;100649.81;;;24.96;59.57
45285;BME280;31026;43.780;25.948;2022-07-06T07:57:08;100618.56;;;24.94;60.44
45285;BME280;31026;43.780;25.948;2022-07-06T07:59:39;100632.22;;;25.00;60.12
45285;BME280;31026;43.780;25.948;2022-07-06T08:02:07;100640.81;;;25.04;59.92
45285;BME280;31026;43.780;25.948;2022-07-06T08:04:36;100637.41;;;25.10;60.12
45285;BME280;31026;43.780;25.948;2022-07-06T08:07:04;100639.44;;;25.08;60.41
45285;BME280;31026;43.780;25.948;2022-07-06T08:09:33;100624.41;;;25.06;62.14
45285;BME280;31026;43.780;25.948;2022-07-06T08:12:01;100636.25;;;25.05;62.39
45285;BME280;31026;43.780;25.948;2022-07-06T08:14:29;100623.91;;;25.02;61.54
45285;BME280;31026;43.780;25.948;2022-07-06T08:17:00;100628.50;;;25.01;61.88
45285;BME280;31026;43.780;25.948;2022-07-06T08:19:29;100650.25;;;25.08;62.82
45285;BME280;31026;43.780;25.948;2022-07-06T08:21:58;100638.94;;;25.05;61.97
45285;BME280;31026;43.780;25.948;2022-07-06T08:24:26;100641.00;;;25.02;62.40
45285;BME280;31026;43.780;25.948;2022-07-06T08:26:54;100641.31;;;25.08;61.47
45285;BME280;31026;43.780;25.948;2022-07-06T08:29:23;100634.84;;;25.09;60.96
45285;BME280;31026;43.780;25.948;2022-07-06T08:31:51;100641.25;;;25.16;62.03
45285;BME280;31026;43.780;25.948;2022-07-06T08:34:22;100633.50;;;25.13;61.53
45285;BME280;31026;43.780;25.948;2022-07-06T08:36:51;100631.81;;;25.12;62.30
45285;BME280;31026;43.780;25.948;2022-07-06T08:39:19;100646.34;;;25.11;61.96
45285;BME280;31026;43.780;25.948;2022-07-06T08:41:48;100640.47;;;25.07;62.67
45285;BME280;31026;43.780;25.948;2022-07-06T08:44:17;100644.84;;;25.08;63.36
45285;BME280;31026;43.780;25.948;2022-07-06T08:46:46;100639.25;;;25.10;63.39
45285;BME280;31026;43.780;25.948;2022-07-06T08:49:17;100638.22;;;25.11;62.64
45285;BME280;31026;43.780;25.948;2022-07-06T08:51:48;100629.75;;;25.14;62.56
45285;BME280;31026;43.780;25.948;2022-07-06T08:54:18;100653.41;;;25.20;62.30
45285;BME280;31026;43.780;25.948;2022-07-06T08:56:46;100633.78;;;25.18;62.20
45285;BME280;31026;43.780;25.948;2022-07-06T08:59:15;100642.44;;;25.22;62.26
45285;BME280;31026;43.780;25.948;2022-07-06T09:01:43;100625.34;;;25.21;62.33
45285;BME280;31026;43.780;25.948;2022-07-06T09:04:13;100637.84;;;25.22;62.29
45285;BME280;31026;43.780;25.948;2022-07-06T09:06:45;100619.25;;;25.19;64.10
45285;BME280;31026;43.780;25.948;2022-07-06T09:09:18;100621.63;;;25.22;63.02
45285;BME280;31026;43.780;25.948;2022-07-06T09:11:47;100625.34;;;25.21;63.11
45285;BME280;31026;43.780;25.948;2022-07-06T09:14:16;100630.75;;;25.21;63.26
45285;BME280;31026;43.780;25.948;2022-07-06T09:16:45;100630.44;;;25.16;63.26
45285;BME280;31026;43.780;25.948;2022-07-06T09:19:15;100624.00;;;25.17;63.06
45285;BME280;31026;43.780;25.948;2022-07-06T09:21:44;100632.28;;;25.15;63.27
45285;BME280;31026;43.780;25.948;2022-07-06T09:24:12;100641.06;;;25.17;63.07
45285;BME280;31026;43.780;25.948;2022-07-06T09:26:44;100632.13;;;25.17;63.15
45285;BME280;31026;43.780;25.948;2022-07-06T09:29:15;100618.59;;;25.17;62.99
45285;BME280;31026;43.780;25.948;2022-07-06T09:31:44;100635.28;;;25.20;62.84
45285;BME280;31026;43.780;25.948;2022-07-06T09:34:23;100640.56;;;25.22;62.63
45285;BME280;31026;43.780;25.948;2022-07-06T09:36:52;100645.97;;;25.22;62.75
45285;BME280;31026;43.780;25.948;2022-07-06T09:39:22;100631.09;;;25.18;62.67
45285;BME280;31026;43.780;25.948;2022-07-06T09:41:53;100638.19;;;25.19;62.61
45285;BME280;31026;43.780;25.948;2022-07-06T09:44:23;100639.22;;;25.18;63.15
45285;BME280;31026;43.780;25.948;2022-07-06T09:46:52;100649.69;;;25.21;62.83
45285;BME280;31026;43.780;25.948;2022-07-06T09:49:21;100632.97;;;25.17;62.94
45285;BME280;31026;43.780;25.948;2022-07-06T09:51:50;100650.69;;;25.20;62.63
45285;BME280;31026;43.780;25.948;2022-07-06T09:54:20;100645.97;;;25.22;62.67
45285;BME280;31026;43.780;25.948;2022-07-06T09:56:49;100637.16;;;25.20;62.66
45285;BME280;31026;43.780;25.948;2022-07-06T09:59:21;100643.09;;;25.24;62.64
45285;BME280;31026;43.780;25.948;2022-07-06T10:01:50;100632.78;;;25.19;62.68
45285;BME280;31026;43.780;25.948;2022-07-06T10:04:19;100643.94;;;25.24;62.86
45285;BME280;31026;43.780;25.948;2022-07-06T10:06:48;100645.63;;;25.25;62.69
45285;BME280;31026;43.780;25.948;2022-07-06T10:09:18;100622.44;;;25.23;62.83
45285;BME280;31026;43.780;25.948;2022-07-06T10:11:47;100630.91;;;25.19;62.82
45285;BME280;31026;43.780;25.948;2022-07-06T10:14:17;100629.75;;;25.22;63.02
45285;BME280;31026;43.780;25.948;2022-07-06T10:16:48;100632.59;;;25.20;62.65
45285;BME280;31026;43.780;25.948;2022-07-06T10:19:17;100626.03;;;25.23;62.83
45285;BME280;31026;43.780;25.948;2022-07-06T10:21:46;100621.44;;;25.24;62.87
45285;BME280;31026;43.780;25.948;2022-07-06T10:24:15;100628.53;;;25.25;62.88
45285;BME280;31026;43.780;25.948;2022-07-06T10:26:43;100620.41;;;25.25;62.56
45285;BME280;31026;43.780;25.948;2022-07-06T10:29:12;100625.16;;;25.23;62.87
45285;BME280;31026;43.780;25.948;2022-07-06T10:31:42;100628.72;;;25.23;62.90
45285;BME280;31026;43.780;25.948;2022-07-06T10:34:15;100611.81;;;25.21;62.84
45285;BME280;31026;43.780;25.948;2022-07-06T10:36:46;100618.06;;;25.22;62.74
45285;BME280;31026;43.780;25.948;2022-07-06T10:39:16;100616.03;;;25.24;62.70
45285;BME280;31026;43.780;25.948;2022-07-06T10:42:17;100608.91;;;25.23;62.78
45285;BME280;31026;43.780;25.948;2022-07-06T10:45:06;100616.88;;;25.24;62.52
45285;BME280;31026;43.780;25.948;2022-07-06T10:47:35;100615.19;;;25.23;62.76
45285;BME280;31026;43.780;25.948;2022-07-06T10:50:06;100599.06;;;25.30;62.75
45285;BME280;31026;43.780;25.948;2022-07-06T10:55:29;100610.09;;;25.20;62.77
45285;BME280;31026;43.780;25.948;2022-07-06T10:57:57;100616.69;;;25.26;63.06
45285;BME280;31026;43.780;25.948;2022-07-06T11:00:26;100608.22;;;25.29;62.51
45285;BME280;31026;43.780;25.948;2022-07-06T11:02:54;100611.03;;;25.35;62.59
45285;BME280;31026;43.780;25.948;2022-07-06T11:08:11;100600.38;;;25.34;62.69
45285;BME280;31026;43.780;25.948;2022-07-06T11:10:48;100603.09;;;25.34;62.96
45285;BME280;31026;43.780;25.948;2022-07-06T11:13:26;100594.13;;;25.33;62.56
45285;BME280;31026;43.780;25.948;2022-07-06T11:16:00;100585.84;;;25.35;62.65
45285;BME280;31026;43.780;25.948;2022-07-06T11:18:38;100597.31;;;25.37;62.65
45285;BME280;31026;43.780;25.948;2022-07-06T11:21:16;100592.56;;;25.39;62.70
45285;BME280;31026;43.780;25.948;2022-07-06T11:23:48;100590.03;;;25.37;62.75
45285;BME280;31026;43.780;25.948;2022-07-06T11:26:17;100577.25;;;25.31;63.04
45285;BME280;31026;43.780;25.948;2022-07-06T11:28:46;100597.69;;;25.34;63.21
45285;BME280;31026;43.780;25.948;2022-07-06T11:31:15;100592.09;;;25.35;62.98
45285;BME280;31026;43.780;25.948;2022-07-06T11:33:47;100578.44;;;25.29;63.32
45285;BME280;31026;43.780;25.948;2022-07-06T11:36:16;100570.13;;;25.30;63.33
45285;BME280;31026;43.780;25.948;2022-07-06T11:38:48;100586.19;;;25.32;63.46
45285;BME280;31026;43.780;25.948;2022-07-06T11:41:17;100579.56;;;25.34;63.13
45285;BME280;31026;43.780;25.948;2022-07-06T11:43:45;100576.84;;;25.34;63.50
45285;BME280;31026;43.780;25.948;2022-07-06T11:46:20;100570.78;;;25.32;63.63
45285;BME280;31026;43.780;25.948;2022-07-06T11:48:48;100570.44;;;25.35;63.63
45285;BME280;31026;43.780;25.948;2022-07-06T11:51:17;100564.44;;;25.25;63.26
45285;BME280;31026;43.780;25.948;2022-07-06T11:53:49;100562.38;;;25.27;63.38
45285;BME280;31026;43.780;25.948;2022-07-06T11:56:17;100567.63;;;25.29;63.16
45285;BME280;31026;43.780;25.948;2022-07-06T11:58:48;100559.84;;;25.26;63.12
45285;BME280;31026;43.780;25.948;2022-07-06T12:01:17;100563.22;;;25.28;63.07
45285;BME280;31026;43.780;25.948;2022-07-06T12:03:46;100563.22;;;25.28;63.26
45285;BME280;31026;43.780;25.948;2022-07-06T12:06:16;100565.09;;;25.27;62.79
45285;BME280;31026;43.780;25.948;2022-07-06T12:08:45;100572.00;;;25.30;62.91
45285;BME280;31026;43.780;25.948;2022-07-06T12:11:22;100548.19;;;25.25;63.00
45285;BME280;31026;43.780;25.948;2022-07-06T12:13:51;100556.97;;;25.27;62.77
45285;BME280;31026;43.780;25.948;2022-07-06T12:16:21;100547.16;;;25.26;63.02
45285;BME280;31026;43.780;25.948;2022-07-06T12:18:50;100552.41;;;25.28;63.26
45285;BME280;31026;43.780;25.948;2022-07-06T12:21:19;100551.56;;;25.27;62.77
45285;BME280;31026;43.780;25.948;2022-07-06T12:23:48;100542.78;;;25.25;62.71
45285;BME280;31026;43.780;25.948;2022-07-06T12:26:18;100546.16;;;25.27;62.83
45285;BME280;31026;43.780;25.948;2022-07-06T12:29:01;100554.44;;;25.26;62.65
45285;BME280;31026;43.780;25.948;2022-07-06T12:31:31;100542.78;;;25.25;62.91
45285;BME280;31026;43.780;25.948;2022-07-06T12:34:00;100539.03;;;25.26;62.84
45285;BME280;31026;43.780;25.948;2022-07-06T12:36:28;100534.47;;;25.27;62.72
45285;BME280;31026;43.780;25.948;2022-07-06T12:38:57;100547.81;;;25.28;62.86
45285;BME280;31026;43.780;25.948;2022-07-06T12:41:26;100533.28;;;25.29;62.83
45285;BME280;31026;43.780;25.948;2022-07-06T12:46:36;100527.38;;;25.26;63.07
45285;BME280;31026;43.780;25.948;2022-07-06T12:49:14;100524.13;;;25.30;62.75
45285;BME280;31026;43.780;25.948;2022-07-06T12:51:53;100521.13;;;25.25;62.79
45285;BME280;31026;43.780;25.948;2022-07-06T12:54:22;100517.38;;;25.26;63.06
45285;BME280;31026;43.780;25.948;2022-07-06T12:59:35;100516.38;;;25.27;62.57
45285;BME280;31026;43.780;25.948;2022-07-06T13:02:08;100509.94;;;25.28;62.85
45285;BME280;31026;43.780;25.948;2022-07-06T13:04:37;100519.91;;;25.28;62.94